hero-logo

Top 15 Knowers of ALKS Alkermes Plc - 2017-07-21

Rank Fund Result (K)
1 Orbimed Advisors Llc $423
2 Gotham Asset Management Llc $150
3 Kelly Lawrence W Associates Inc Ca $144
4 Jane Street Group Llc $38
5 Brinker Capital Inc $32
6 Group One Trading L P $32
7 Guggenheim Capital Llc $31
8 Nexthera Capital Lp $27
9 Stifel Financial Corp $18
10 Marsico Capital Management Llc $7
11 Opus Point Partners Management Llc $5
12 Envestnet Asset Management Inc $4
13 Ifp Advisors Inc $0
14 Verition Fund Management Llc $0
15 Proficio Capital Partners Llc $0
Price Chart and News From Google Finance for ALKS Alkermes Plc
Owner Date Shares Change Price Change Result (K)
Acrospire Investment Management Llc 2017-03-31 -900 $2.92 $-2
Alpine Global Management Llc 2017-03-31 -3,979 $2.92 $-11
Amalgamated Bank 2017-03-31 -4,841 $2.92 $-14
Aperio Group Llc 2017-03-31 -3,573 $2.92 $-10
Archford Capital Strategies Llc 2017-03-31 0 $2.92 $0
A R T Advisors Llc 2017-03-31 -74,900 $2.92 $-218
Assetmark Inc 2017-03-31 2 $2.92 $0
Atika Capital Management Llc 2017-03-31 -9,000 $2.92 $-26
Auxier Asset Management 2017-03-31 -100 $2.92 $0
Baker Bros Advisors Lp 2017-03-31 0 $2.92 $0
Boston Private Wealth Llc 2017-03-31 0 $2.92 $0
Brinker Capital Inc 2017-03-31 11,210 $2.92 $32
California State Teachers Retirement System 2017-03-31 -13,500 $2.92 $-39
Earnest Partners Llc 2017-03-31 -62 $2.92 $0
Envestnet Asset Management Inc 2017-03-31 1,646 $2.92 $4
Fiera Capital Corp 2017-03-31 -5,516 $2.92 $-16
First Light Asset Management Llc 2017-03-31 -30,844 $2.92 $-90
Glg Llc 2017-03-31 -21 $2.92 $0
Gotham Asset Management Llc 2017-03-31 51,566 $2.92 $150
Granahan Investment Management Inc Ma 2017-03-31 -454,376 $2.92 $-1,326
Group One Trading L P 2017-03-31 11,145 $2.92 $32
Guggenheim Capital Llc 2017-03-31 10,700 $2.92 $31
Horizon Kinetics Llc 2017-03-31 0 $2.92 $0
Ifp Advisors Inc 2017-03-31 260 $2.92 $0
Insight Capital Research Management Inc 2017-03-31 -5,492 $2.92 $-16
Jane Street Group Llc 2017-03-31 13,031 $2.92 $38
Kelly Lawrence W Associates Inc Ca 2017-03-31 49,400 $2.92 $144
Ladenburg Thalmann Financial Services Inc 2017-03-31 -12 $2.92 $0
Marsico Capital Management Llc 2017-03-31 2,400 $2.92 $7
Nexthera Capital Lp 2017-03-31 9,400 $2.92 $27
Northwestern Mutual Wealth Management Co 2017-03-31 -61 $2.92 $0
Opus Point Partners Management Llc 2017-03-31 1,894 $2.92 $5
Orbimed Advisors Llc 2017-03-31 145,000 $2.92 $423
Paloma Partners Management Co 2017-03-31 -10,825 $2.92 $-31
Proficio Capital Partners Llc 2017-03-31 73 $2.92 $0
Raymond James Associates 2017-03-31 -54 $2.92 $0
Rock Springs Capital Management Lp 2017-03-31 0 $2.92 $0
Srs Capital Advisors Inc 2017-03-31 0 $2.92 $0
Stifel Financial Corp 2017-03-31 6,278 $2.92 $18
Verition Fund Management Llc 2017-03-31 92 $2.92 $0
Voloridge Investment Management Llc 2017-03-31 -15,486 $2.92 $-45
Walleye Trading Llc 2017-03-31 -182 $2.92 $0